createdAt,value
2023-03-17T06:41:17.488Z,92.45
2023-03-17T06:42:20.507Z,92.08
2023-03-17T06:43:24.968Z,92.13
2023-03-17T06:44:27.894Z,92.19
2023-03-17T06:45:33.143Z,91.94
2023-03-17T06:46:36.809Z,92.05
2023-03-17T06:47:39.954Z,91.84
2023-03-17T06:48:43.593Z,91.63
2023-03-17T06:49:46.603Z,91.77
2023-03-17T06:50:50.168Z,91.57
2023-03-17T06:51:53.258Z,91.34
2023-03-17T06:52:56.574Z,91.36
2023-03-17T06:53:59.398Z,91.02
2023-03-17T06:55:02.317Z,90.79
2023-03-17T06:56:05.726Z,90.87
2023-03-17T06:57:09.662Z,90.86
2023-03-17T06:58:13.233Z,90.83
2023-03-17T06:59:16.090Z,90.64
2023-03-17T07:00:20.985Z,90.46
2023-03-17T07:01:24.097Z,90.42
2023-03-17T07:02:27.472Z,90.27
2023-03-17T07:03:31.150Z,90.26
2023-03-17T07:04:37.669Z,90.24
2023-03-17T07:05:40.563Z,89.92
2023-03-17T07:06:43.380Z,90.11
2023-03-17T07:07:46.470Z,89.95
2023-03-17T07:08:50.914Z,89.62
2023-03-17T07:09:54.148Z,89.43
2023-03-17T07:10:57.949Z,89.62
2023-03-17T07:12:05.132Z,89.52
2023-03-17T07:13:08.679Z,89.38
2023-03-17T07:14:11.534Z,89.51
2023-03-17T07:15:14.820Z,89.27
2023-03-17T07:16:19.734Z,89.23
2023-03-17T07:17:22.903Z,89.23
2023-03-17T07:18:26.464Z,89.36
2023-03-17T07:19:31.266Z,89.12
2023-03-17T07:20:34.223Z,88.91
2023-03-17T07:21:37.023Z,88.93
2023-03-17T07:22:40.675Z,88.97
2023-03-17T07:23:43.979Z,88.58
2023-03-17T07:24:49.084Z,88.58
2023-03-17T07:25:52.733Z,88.85
2023-03-17T07:26:55.518Z,88.81
2023-03-17T07:27:58.936Z,88.52
2023-03-17T07:29:01.842Z,88.58
2023-03-17T07:30:05.829Z,88.59
2023-03-17T07:31:09.589Z,88.69
2023-03-17T07:32:13.027Z,88.24
2023-03-17T07:33:17.520Z,87.86
2023-03-17T07:34:20.514Z,87.69
2023-03-17T07:35:23.599Z,87.60
2023-03-17T07:36:26.532Z,87.46
2023-03-17T07:37:29.412Z,87.38
2023-03-17T07:38:32.267Z,87.44
2023-03-17T07:39:35.453Z,87.44
2023-03-17T07:40:39.041Z,87.37
2023-03-17T07:41:44.096Z,86.99
2023-03-17T07:42:47.031Z,87.07
2023-03-17T07:43:50.035Z,87.26
2023-03-17T07:44:53.078Z,87.23
2023-03-17T07:45:56.391Z,87.16
2023-03-17T07:46:59.477Z,87.23
2023-03-17T07:48:05.121Z,87.09
2023-03-17T07:49:09.380Z,86.79
2023-03-17T07:50:12.547Z,87.02
2023-03-17T07:51:19.078Z,86.87
2023-03-17T07:52:21.964Z,86.79
2023-03-17T07:53:25.420Z,87.02
2023-03-17T07:54:29.274Z,86.98
2023-03-17T07:55:33.175Z,86.53
2023-03-17T07:56:36.332Z,86.40
2023-03-17T07:57:40.200Z,86.39
2023-03-17T07:58:43.396Z,86.68
2023-03-17T07:59:46.265Z,86.29
2023-03-17T08:00:49.171Z,85.75
2023-03-17T08:01:53.233Z,85.75
2023-03-17T08:03:09.472Z,86.00
2023-03-17T08:04:14.669Z,85.75
2023-03-17T08:05:18.368Z,85.40
2023-03-17T08:06:21.796Z,85.26
2023-03-17T08:07:24.667Z,85.19
2023-03-17T08:08:28.287Z,85.28
2023-03-17T08:09:32.009Z,85.17
2023-03-17T08:10:35.412Z,84.79
2023-03-17T08:11:39.151Z,84.89
2023-03-17T08:12:42.804Z,84.93
2023-03-17T08:13:45.748Z,85.08
2023-03-17T08:14:48.783Z,85.39
2023-03-17T08:15:52.829Z,85.12
2023-03-17T08:16:55.937Z,84.83
2023-03-17T08:17:59.094Z,85.03
2023-03-17T08:19:04.148Z,85.09
2023-03-17T08:20:07.905Z,85.03
2023-03-17T08:21:10.884Z,85.27
2023-03-17T08:22:13.732Z,85.23
2023-03-17T08:23:18.003Z,84.93
2023-03-17T08:24:20.928Z,84.97
2023-03-17T08:25:24.785Z,85.04
2023-03-17T08:26:27.952Z,84.83
2023-03-17T08:27:33.644Z,84.73
2023-03-17T08:28:37.501Z,85.03
2023-03-17T08:29:40.544Z,84.78
2023-03-17T08:30:44.874Z,85.02
2023-03-17T08:31:47.938Z,85.23
2023-03-17T08:32:51.395Z,84.78
2023-03-17T08:33:56.657Z,85.08
2023-03-17T08:35:00.467Z,85.08
2023-03-17T08:36:09.422Z,85.37
2023-03-17T08:37:12.317Z,85.14
2023-03-17T08:38:15.323Z,85.45
2023-03-17T08:39:19.625Z,85.87
2023-03-17T08:40:23.144Z,85.57
2023-03-17T08:41:27.539Z,85.41
2023-03-17T08:42:30.822Z,85.20
2023-03-17T08:43:34.903Z,85.30
2023-03-17T08:44:37.928Z,85.08
2023-03-17T08:45:40.911Z,84.90
2023-03-17T08:46:43.905Z,85.17
2023-03-17T08:47:47.806Z,84.52
2023-03-17T08:48:52.816Z,84.08
2023-03-17T08:49:56.330Z,83.71
2023-03-17T08:50:59.331Z,83.52
2023-03-17T08:52:03.090Z,83.87
2023-03-17T08:53:05.979Z,83.75
2023-03-17T08:54:08.960Z,83.59
2023-03-17T08:55:13.804Z,83.11
2023-03-17T08:56:17.127Z,81.87
2023-03-17T08:57:20.799Z,81.61
2023-03-17T08:58:24.738Z,81.96
2023-03-17T08:59:27.722Z,82.95
2023-03-17T09:00:30.871Z,82.92
2023-03-17T09:01:34.931Z,83.01
2023-03-17T09:02:39.895Z,82.90
2023-03-17T09:03:43.827Z,82.95
2023-03-17T09:04:47.176Z,82.87
2023-03-17T09:05:51.475Z,82.49
2023-03-17T09:07:03.454Z,82.06
2023-03-17T09:08:07.671Z,82.36
2023-03-17T09:09:11.046Z,80.98
2023-03-17T09:10:14.882Z,81.28
2023-03-17T09:11:20.490Z,81.49
2023-03-17T09:12:23.316Z,81.37
2023-03-17T09:13:26.213Z,80.21
2023-03-17T09:14:31.743Z,79.80
2023-03-17T09:15:37.036Z,79.95
2023-03-17T09:16:40.194Z,80.57
2023-03-17T09:17:43.972Z,80.88
2023-03-17T09:18:46.967Z,80.09
2023-03-17T09:19:49.905Z,80.38
2023-03-17T09:20:53.237Z,79.14
2023-03-17T09:21:56.076Z,78.76
2023-03-17T09:22:59.584Z,78.13
2023-03-17T09:24:02.838Z,78.39
2023-03-17T09:25:06.069Z,78.22
2023-03-17T09:26:10.367Z,78.09
2023-03-17T09:27:13.452Z,79.09
2023-03-17T09:28:17.392Z,79.49
2023-03-17T09:29:20.417Z,79.10
2023-03-17T09:30:23.454Z,78.99
2023-03-17T09:31:26.805Z,79.03
2023-03-17T09:32:29.704Z,78.85
2023-03-17T09:33:32.608Z,78.88
2023-03-17T09:34:35.919Z,78.12
2023-03-17T09:35:40.284Z,78.52
2023-03-17T09:36:43.588Z,79.19
2023-03-17T09:37:48.094Z,78.03
2023-03-17T09:38:51.267Z,78.74
2023-03-17T09:39:54.061Z,78.86
2023-03-17T09:41:23.974Z,78.26
2023-03-17T09:42:27.381Z,78.47
2023-03-17T09:44:05.197Z,78.34
2023-03-17T09:45:17.664Z,78.26
2023-03-17T09:46:36.595Z,77.62
2023-03-17T09:47:48.999Z,77.41
2023-03-17T09:49:10.825Z,78.03
2023-03-17T09:50:19.374Z,77.84
2023-03-17T09:51:22.267Z,77.39
2023-03-17T09:52:30.401Z,77.80
2023-03-17T09:53:46.355Z,77.60
2023-03-17T09:54:50.120Z,77.23
2023-03-17T09:55:57.894Z,77.02
2023-03-17T09:57:12.600Z,77.49
2023-03-17T09:58:28.213Z,76.76
2023-03-17T09:59:38.361Z,76.47
2023-03-17T10:00:41.565Z,76.51
2023-03-17T10:01:44.454Z,75.75
2023-03-17T10:02:48.569Z,76.36
2023-03-17T10:03:51.715Z,76.05
2023-03-17T10:04:55.077Z,75.22
2023-03-17T10:06:13.440Z,75.71
2023-03-17T10:07:23.485Z,75.34
2023-03-17T10:08:32.463Z,75.78
2023-03-17T10:09:46.139Z,75.76
2023-03-17T10:11:15.037Z,75.14
2023-03-17T10:12:45.550Z,74.83
2023-03-17T10:14:03.701Z,75.68
2023-03-17T10:15:19.142Z,76.35
2023-03-17T10:16:34.774Z,76.13
2023-03-17T10:17:42.802Z,75.03
2023-03-17T10:18:58.524Z,75.18
2023-03-17T10:20:34.738Z,74.60
2023-03-17T10:21:48.521Z,74.89
2023-03-17T10:22:58.284Z,74.18
2023-03-17T10:24:04.206Z,74.23
2023-03-17T10:25:17.614Z,73.98
2023-03-17T10:26:43.796Z,74.36
2023-03-17T10:27:55.761Z,73.60
2023-03-17T10:28:59.989Z,73.82
2023-03-17T10:30:04.278Z,73.08
2023-03-17T10:31:30.080Z,73.55
2023-03-17T10:32:37.869Z,73.04
2023-03-17T10:33:40.990Z,71.84
2023-03-17T10:34:44.413Z,71.35
2023-03-17T10:35:47.785Z,72.70
2023-03-17T10:36:55.016Z,72.69
2023-03-17T10:38:13.489Z,72.61
2023-03-17T10:39:20.309Z,72.27
2023-03-17T10:40:30.616Z,71.32
2023-03-17T10:41:36.538Z,72.24
2023-03-17T10:42:53.492Z,71.75
2023-03-17T10:43:57.869Z,70.93
2023-03-17T10:45:29.964Z,70.39
2023-03-17T10:46:33.215Z,68.95
2023-03-17T10:47:44.720Z,68.56
2023-03-17T10:49:13.063Z,69.10
2023-03-17T10:50:23.275Z,67.63
2023-03-17T10:51:35.518Z,66.73
2023-03-17T10:52:42.319Z,66.83
2023-03-17T10:53:52.429Z,65.70
2023-03-17T10:54:55.321Z,66.69
2023-03-17T10:56:06.972Z,67.64
2023-03-17T10:57:14.053Z,67.93
2023-03-17T10:58:29.199Z,68.28
2023-03-17T10:59:39.509Z,68.53
2023-03-17T11:01:05.831Z,68.42
2023-03-17T11:02:24.389Z,69.08
2023-03-17T11:03:34.344Z,67.99
2023-03-17T11:04:42.635Z,68.56
2023-03-17T11:06:05.578Z,68.46
2023-03-17T11:07:19.907Z,68.97
2023-03-17T11:08:23.471Z,68.12
2023-03-17T11:09:30.677Z,65.52
2023-03-17T11:10:38.186Z,65.20
2023-03-17T11:11:47.670Z,65.32
2023-03-17T11:13:00.371Z,65.55
2023-03-17T11:14:10.590Z,64.63
2023-03-17T11:15:17.763Z,64.91
2023-03-17T11:16:24.911Z,65.66
2023-03-17T11:17:51.665Z,65.14
2023-03-17T11:18:58.111Z,64.04
2023-03-17T11:20:19.214Z,64.27
2023-03-17T11:21:32.604Z,63.98
2023-03-17T11:22:41.053Z,64.54
2023-03-17T11:23:55.037Z,63.14
2023-03-17T11:25:23.541Z,64.43
2023-03-17T11:26:54.453Z,63.70
2023-03-17T11:28:07.929Z,63.73
2023-03-17T11:29:39.571Z,63.06
2023-03-17T11:30:54.767Z,63.82
2023-03-17T11:32:18.892Z,64.50
2023-03-17T11:33:42.601Z,63.71
2023-03-17T11:34:59.997Z,64.19
2023-03-17T11:36:15.774Z,64.19
2023-03-17T11:37:48.083Z,62.56
2023-03-17T11:39:22.842Z,62.49
2023-03-17T11:40:36.099Z,63.50
2023-03-17T11:41:51.133Z,63.05
2023-03-17T11:43:15.544Z,62.74
2023-03-17T11:45:00.033Z,61.43
2023-03-17T11:46:11.132Z,61.96
2023-03-17T11:47:20.670Z,63.12
2023-03-17T11:48:44.845Z,60.40
2023-03-17T11:50:07.460Z,59.64
2023-03-17T11:51:30.482Z,60.43
2023-03-17T11:53:01.987Z,56.92
2023-03-17T11:54:15.958Z,58.61
2023-03-17T11:55:34.827Z,57.39
2023-03-17T11:56:54.311Z,59.02
2023-03-17T11:58:02.291Z,57.49
2023-03-17T11:59:12.871Z,58.25
2023-03-17T12:00:34.920Z,56.68
2023-03-17T12:02:15.964Z,55.08
2023-03-17T12:03:38.846Z,54.53
2023-03-17T12:05:05.108Z,55.63
2023-03-17T12:06:26.038Z,57.42
2023-03-17T12:07:51.423Z,57.59
2023-03-17T12:09:07.859Z,55.09
2023-03-17T12:10:18.567Z,56.10
2023-03-17T12:11:28.258Z,56.20
2023-03-17T12:12:38.202Z,57.29
2023-03-17T12:13:49.823Z,55.23
2023-03-17T12:14:54.582Z,56.83
2023-03-17T12:16:06.179Z,57.48
2023-03-17T12:17:21.010Z,57.79
2023-03-17T12:18:31.164Z,56.41
2023-03-17T12:19:44.740Z,56.72
2023-03-17T12:21:01.687Z,57.33
2023-03-17T12:22:20.016Z,57.20
2023-03-17T12:23:40.623Z,54.80
2023-03-17T12:25:02.927Z,54.16
2023-03-17T12:26:12.917Z,52.72
2023-03-17T12:27:23.380Z,52.55
2023-03-17T12:28:37.803Z,54.41
2023-03-17T12:29:47.511Z,53.38
2023-03-17T12:30:57.158Z,53.98
2023-03-17T12:32:35.981Z,54.27
2023-03-17T12:33:58.903Z,53.66
2023-03-17T12:35:32.008Z,55.05
2023-03-17T12:36:36.864Z,54.26
2023-03-17T12:37:40.515Z,53.42
2023-03-17T12:38:57.063Z,51.77
2023-03-17T12:40:20.347Z,52.14
2023-03-17T12:41:26.571Z,52.10
2023-03-17T12:42:52.378Z,52.75
2023-03-17T12:44:26.329Z,51.88
2023-03-17T12:45:41.267Z,52.61
2023-03-17T12:47:23.322Z,52.39
2023-03-17T12:48:54.373Z,52.19
2023-03-17T12:50:44.914Z,52.38
2023-03-17T12:52:06.473Z,51.76
2023-03-17T12:53:21.518Z,51.06
2023-03-17T12:54:33.255Z,51.90
2023-03-17T12:55:36.935Z,52.74
2023-03-17T12:56:46.507Z,52.58
2023-03-17T12:58:02.242Z,51.43
2023-03-17T12:59:08.814Z,51.50
2023-03-17T13:00:28.353Z,51.23
2023-03-17T13:01:33.385Z,52.76
2023-03-17T13:02:38.852Z,52.03
2023-03-17T13:04:01.054Z,51.14
2023-03-17T13:05:14.846Z,52.53
2023-03-17T13:06:21.428Z,52.28
2023-03-17T13:07:27.151Z,51.15
2023-03-17T13:08:33.595Z,50.95
2023-03-17T13:09:44.540Z,49.82
2023-03-17T13:10:50.491Z,50.13
2023-03-17T13:11:54.049Z,50.53
2023-03-17T13:13:07.175Z,51.25
2023-03-17T13:14:27.121Z,50.65
2023-03-17T13:15:51.203Z,48.95
2023-03-17T13:17:05.433Z,50.52
2023-03-17T13:18:13.953Z,48.22
2023-03-17T13:19:31.234Z,48.74
2023-03-17T13:20:41.248Z,48.24
2023-03-17T13:21:49.277Z,48.47
2023-03-17T13:23:15.000Z,48.05
2023-03-17T13:24:21.045Z,48.95
2023-03-17T13:25:31.255Z,45.57
2023-03-17T13:26:53.015Z,46.72
2023-03-17T13:28:12.189Z,44.97
2023-03-17T13:29:25.711Z,46.29
2023-03-17T13:30:29.490Z,46.23
2023-03-17T13:31:36.714Z,46.59
2023-03-17T13:32:39.982Z,44.91
2023-03-17T13:33:53.465Z,44.51
2023-03-17T13:35:02.404Z,44.59
2023-03-17T13:36:42.009Z,44.45
2023-03-17T13:38:14.110Z,43.75
2023-03-17T13:39:30.436Z,43.93
2023-03-17T13:40:53.852Z,43.10
2023-03-17T13:42:17.633Z,41.82
2023-03-17T13:43:33.728Z,41.93
2023-03-17T13:44:52.224Z,40.27
2023-03-17T13:46:15.455Z,41.42
2023-03-17T13:47:34.959Z,41.94
2023-03-17T13:48:38.065Z,40.16
2023-03-17T13:49:41.040Z,40.91
2023-03-17T13:50:43.879Z,42.22
2023-03-17T13:52:10.496Z,42.27
2023-03-17T13:53:14.912Z,40.39
2023-03-17T13:54:34.668Z,41.56
2023-03-17T13:55:42.561Z,39.28
2023-03-17T13:56:45.619Z,40.30
2023-03-17T13:58:16.187Z,41.49
2023-03-17T13:59:32.635Z,40.31
2023-03-17T14:00:41.606Z,40.74
2023-03-17T14:01:55.917Z,41.20
2023-03-17T14:03:10.554Z,41.22
2023-03-17T14:04:20.877Z,41.53
2023-03-17T14:05:29.483Z,42.00
2023-03-17T14:06:37.340Z,40.62
2023-03-17T14:08:01.703Z,41.81
2023-03-17T14:09:16.595Z,41.76
2023-03-17T14:10:23.528Z,41.12
2023-03-17T14:11:35.503Z,39.10
2023-03-17T14:12:56.737Z,40.30
2023-03-17T14:14:26.023Z,39.80
2023-03-17T14:15:47.963Z,40.90
2023-03-17T14:17:02.828Z,41.01
2023-03-17T14:18:16.426Z,41.78
2023-03-17T14:19:27.007Z,41.49
2023-03-17T14:20:30.026Z,41.12
2023-03-17T14:21:33.954Z,40.98
2023-03-17T14:22:45.033Z,41.07
2023-03-17T14:24:00.556Z,40.89
2023-03-17T14:25:03.841Z,41.17
2023-03-17T14:26:10.923Z,41.21
2023-03-17T14:27:15.198Z,40.87
2023-03-17T14:28:24.228Z,41.50
2023-03-17T14:29:32.290Z,41.21
2023-03-17T14:30:36.412Z,41.14
2023-03-17T15:30:21.958Z,46.03
2023-03-17T15:31:28.058Z,46.38
2023-03-17T15:32:31.546Z,46.18
2023-03-17T15:33:36.798Z,46.57
2023-03-17T15:34:38.509Z,46.89
2023-03-17T15:35:40.195Z,46.50
2023-03-17T15:36:43.508Z,46.20
2023-03-17T15:37:45.219Z,46.76
2023-03-17T15:38:46.722Z,46.56
2023-03-17T15:39:49.362Z,46.83
2023-03-17T15:40:50.839Z,46.83
2023-03-17T15:41:52.359Z,47.28
2023-03-17T15:42:53.803Z,47.18
2023-03-17T15:43:56.114Z,47.33
2023-03-17T15:44:59.557Z,47.38
2023-03-17T15:46:07.655Z,47.54
2023-03-17T15:47:15.027Z,47.37
2023-03-17T15:48:24.748Z,47.55
2023-03-17T15:49:27.010Z,47.56
2023-03-17T15:50:31.722Z,47.59
2023-03-17T15:51:33.337Z,47.51
2023-03-17T15:52:34.826Z,47.87
2023-03-17T15:53:36.525Z,47.97
2023-03-17T15:54:38.380Z,47.63
2023-03-17T15:55:40.254Z,48.10
2023-03-17T15:56:42.783Z,48.36
2023-03-17T15:57:53.872Z,47.82
2023-03-17T15:58:56.407Z,48.18
2023-03-17T15:59:57.835Z,48.13
2023-03-17T16:00:59.456Z,48.09
2023-03-17T16:02:01.336Z,48.69
2023-03-17T16:03:16.372Z,48.56
2023-03-17T16:04:18.306Z,48.70
2023-03-17T16:05:25.887Z,48.63
2023-03-17T16:06:27.410Z,48.83
2023-03-17T16:07:30.329Z,48.87
2023-03-17T16:08:31.802Z,49.00
2023-03-17T16:09:34.777Z,49.03
2023-03-17T16:10:36.677Z,49.25
2023-03-17T16:11:40.347Z,49.27
2023-03-17T16:12:42.013Z,49.22
2023-03-17T16:13:43.534Z,49.52
2023-03-17T16:14:45.143Z,49.64
2023-03-17T16:15:54.413Z,49.58
2023-03-17T16:16:56.251Z,49.34
2023-03-17T16:18:00.932Z,49.54
2023-03-17T16:19:05.275Z,49.48
2023-03-17T16:20:18.396Z,49.92
2023-03-17T16:21:20.721Z,49.89
2023-03-17T16:22:36.313Z,50.05
2023-03-17T16:23:37.895Z,50.30
2023-03-17T16:24:39.641Z,50.17
2023-03-17T16:25:41.991Z,50.08
2023-03-17T16:26:43.484Z,50.38
2023-03-17T16:27:45.879Z,50.08
2023-03-17T16:28:48.470Z,50.28
2023-03-17T16:29:49.928Z,50.05
2023-03-17T16:30:53.796Z,50.53
2023-03-17T16:31:55.264Z,50.18
2023-03-17T16:33:01.554Z,50.66
2023-03-17T16:34:03.040Z,50.76
2023-03-17T16:35:13.700Z,50.70
2023-03-17T16:36:17.773Z,50.51
2023-03-17T16:37:19.191Z,50.86
2023-03-17T16:38:23.774Z,50.78
2023-03-17T16:39:25.730Z,50.93
2023-03-17T16:40:33.408Z,50.95
2023-03-17T16:41:34.978Z,51.16
2023-03-17T16:42:36.533Z,51.08
2023-03-17T16:43:42.870Z,51.09
2023-03-17T16:44:44.455Z,51.16
2023-03-17T16:45:45.913Z,51.13
2023-03-17T16:46:47.756Z,51.30
2023-03-17T16:47:49.584Z,51.47
2023-03-17T16:48:51.158Z,51.66
2023-03-17T16:49:52.873Z,51.78
2023-03-17T16:50:55.860Z,51.74
2023-03-17T16:51:57.312Z,51.76
2023-03-17T16:52:59.591Z,51.74
2023-03-17T16:54:01.080Z,51.88
2023-03-17T16:55:02.592Z,51.91
2023-03-17T16:56:12.917Z,51.92
2023-03-17T16:57:15.009Z,52.08
2023-03-17T16:58:19.817Z,52.05
2023-03-17T16:59:24.846Z,52.08
2023-03-17T17:00:30.657Z,52.15
2023-03-17T17:01:33.739Z,52.37
2023-03-17T17:02:35.799Z,52.16
2023-03-17T17:03:37.819Z,52.33
2023-03-17T17:04:42.430Z,52.31
2023-03-17T17:05:44.590Z,52.57
2023-03-17T17:06:46.110Z,52.58
2023-03-17T17:07:49.247Z,52.68
2023-03-17T17:08:51.525Z,52.52
2023-03-17T17:09:53.050Z,52.71
2023-03-17T17:10:56.636Z,52.82
2023-03-17T17:11:58.138Z,52.83
2023-03-17T17:13:01.379Z,52.85
2023-03-17T17:14:03.319Z,52.70
2023-03-17T17:15:07.857Z,52.72
2023-03-17T17:16:34.772Z,52.70
2023-03-17T17:17:39.346Z,53.02
2023-03-17T17:18:40.786Z,52.84
2023-03-17T17:19:42.305Z,52.86
2023-03-17T17:20:45.573Z,52.88
2023-03-17T17:21:47.877Z,52.91
2023-03-17T17:22:50.408Z,52.83
2023-03-17T17:23:55.534Z,52.96
2023-03-17T17:24:56.977Z,52.86
2023-03-17T17:25:58.674Z,53.17
2023-03-17T17:27:00.381Z,53.02
2023-03-17T17:28:05.699Z,52.72
2023-03-17T17:29:07.281Z,52.92
2023-03-17T17:30:12.696Z,52.79
2023-03-17T17:31:16.736Z,52.89
2023-03-17T17:32:19.274Z,52.77
2023-03-17T17:33:21.525Z,52.98
2023-03-17T17:34:27.699Z,52.78
2023-03-17T17:35:32.795Z,52.73
2023-03-17T17:36:36.826Z,52.94
2023-03-17T17:37:39.182Z,53.02
2023-03-17T17:38:41.020Z,52.94
2023-03-17T17:39:42.813Z,52.92
2023-03-17T17:40:45.182Z,52.74
2023-03-17T17:41:46.970Z,52.63
2023-03-17T17:42:49.121Z,52.75
2023-03-17T17:43:54.377Z,52.78
2023-03-17T17:44:57.887Z,52.86
2023-03-17T17:46:00.471Z,52.44
2023-03-17T17:47:02.654Z,52.52
2023-03-17T17:48:04.639Z,52.45
2023-03-17T17:49:10.311Z,52.63
2023-03-17T17:50:18.171Z,52.62
2023-03-17T17:51:19.851Z,52.79
2023-03-17T17:52:21.568Z,52.94
2023-03-17T17:53:31.044Z,52.54
2023-03-17T17:55:00.481Z,52.73
2023-03-17T17:59:52.647Z,52.63
2023-03-17T18:00:57.338Z,52.73
2023-03-17T18:02:01.180Z,52.72
2023-03-17T18:03:03.875Z,52.76
2023-03-17T18:04:06.940Z,52.73
2023-03-17T18:05:10.522Z,52.91
2023-03-17T18:06:13.062Z,53.03
2023-03-17T18:07:15.167Z,52.89
2023-03-17T18:08:18.674Z,53.04
2023-03-17T18:09:31.847Z,53.07
2023-03-17T18:10:43.414Z,53.04
2023-03-17T18:20:47.666Z,53.76
2023-03-17T18:23:46.897Z,53.76
2023-03-17T18:24:49.334Z,53.86
2023-03-17T18:26:13.495Z,53.81
2023-03-17T18:27:22.741Z,53.84
2023-03-17T18:30:12.940Z,54.01
2023-03-17T18:31:34.086Z,54.12
2023-03-17T18:32:36.616Z,54.00
2023-03-17T18:33:40.927Z,54.12
2023-03-17T18:34:47.198Z,54.10
2023-03-17T18:35:51.545Z,54.21
2023-03-17T18:36:55.128Z,54.15
2023-03-17T18:37:57.365Z,54.01
2023-03-17T18:38:58.848Z,54.15
2023-03-17T18:40:13.481Z,54.22
2023-03-17T18:41:17.194Z,54.22
2023-03-17T18:42:18.803Z,54.40
